sensor_id;sensor_type;location;lat;lon;timestamp;P1;durP1;ratioP1;P2;durP2;ratioP2
21876;SDS011;11103;43.788;23.710;2022-08-11T00:00:37;12.90;;;11.30;;
21876;SDS011;11103;43.788;23.710;2022-08-11T00:03:07;15.67;;;12.10;;
21876;SDS011;11103;43.788;23.710;2022-08-11T00:05:45;13.83;;;11.40;;
21876;SDS011;11103;43.788;23.710;2022-08-11T00:08:20;15.20;;;11.93;;
21876;SDS011;11103;43.788;23.710;2022-08-11T00:10:53;17.43;;;10.87;;
21876;SDS011;11103;43.788;23.710;2022-08-11T00:13:35;12.90;;;11.00;;
21876;SDS011;11103;43.788;23.710;2022-08-11T00:16:03;14.47;;;11.17;;
21876;SDS011;11103;43.788;23.710;2022-08-11T00:18:40;15.43;;;10.83;;
21876;SDS011;11103;43.788;23.710;2022-08-11T00:21:09;14.73;;;10.90;;
21876;SDS011;11103;43.788;23.710;2022-08-11T00:23:43;13.80;;;11.27;;
21876;SDS011;11103;43.788;23.710;2022-08-11T00:26:11;15.40;;;11.03;;
21876;SDS011;11103;43.788;23.710;2022-08-11T00:28:38;16.23;;;10.20;;
21876;SDS011;11103;43.788;23.710;2022-08-11T00:34:11;14.10;;;10.73;;
21876;SDS011;11103;43.788;23.710;2022-08-11T00:36:41;15.43;;;9.97;;
21876;SDS011;11103;43.788;23.710;2022-08-11T00:39:11;11.80;;;9.30;;
21876;SDS011;11103;43.788;23.710;2022-08-11T00:41:41;10.93;;;8.83;;
21876;SDS011;11103;43.788;23.710;2022-08-11T00:49:38;9.37;;;8.30;;
21876;SDS011;11103;43.788;23.710;2022-08-11T01:06:46;9.43;;;7.30;;
21876;SDS011;11103;43.788;23.710;2022-08-11T01:33:52;12.07;;;8.60;;
21876;SDS011;11103;43.788;23.710;2022-08-11T01:36:40;8.87;;;7.97;;
21876;SDS011;11103;43.788;23.710;2022-08-11T01:42:15;10.10;;;7.40;;
21876;SDS011;11103;43.788;23.710;2022-08-11T01:47:44;9.50;;;6.70;;
21876;SDS011;11103;43.788;23.710;2022-08-11T01:53:15;7.23;;;5.83;;
21876;SDS011;11103;43.788;23.710;2022-08-11T02:09:51;5.67;;;2.53;;
21876;SDS011;11103;43.788;23.710;2022-08-11T02:15:08;4.63;;;2.80;;
21876;SDS011;11103;43.788;23.710;2022-08-11T02:20:19;4.17;;;2.90;;
21876;SDS011;11103;43.788;23.710;2022-08-11T02:23:24;3.47;;;3.00;;
21876;SDS011;11103;43.788;23.710;2022-08-11T02:26:17;3.83;;;2.90;;
21876;SDS011;11103;43.788;23.710;2022-08-11T02:42:25;5.13;;;4.37;;
21876;SDS011;11103;43.788;23.710;2022-08-11T02:50:30;5.30;;;4.47;;
21876;SDS011;11103;43.788;23.710;2022-08-11T02:56:00;6.17;;;4.37;;
21876;SDS011;11103;43.788;23.710;2022-08-11T03:01:49;6.57;;;4.63;;
21876;SDS011;11103;43.788;23.710;2022-08-11T03:04:30;5.83;;;4.37;;
21876;SDS011;11103;43.788;23.710;2022-08-11T03:07:22;11.00;;;5.43;;
21876;SDS011;11103;43.788;23.710;2022-08-11T03:09:52;5.90;;;5.07;;
21876;SDS011;11103;43.788;23.710;2022-08-11T03:12:27;7.60;;;4.50;;
21876;SDS011;11103;43.788;23.710;2022-08-11T03:21:22;7.27;;;4.23;;
21876;SDS011;11103;43.788;23.710;2022-08-11T03:24:15;4.70;;;4.17;;
21876;SDS011;11103;43.788;23.710;2022-08-11T03:26:47;6.20;;;4.47;;
21876;SDS011;11103;43.788;23.710;2022-08-11T03:34:47;4.40;;;4.00;;
21876;SDS011;11103;43.788;23.710;2022-08-11T03:43:06;6.60;;;3.97;;
21876;SDS011;11103;43.788;23.710;2022-08-11T03:45:57;6.23;;;3.83;;
21876;SDS011;11103;43.788;23.710;2022-08-11T03:51:44;4.27;;;3.87;;
21876;SDS011;11103;43.788;23.710;2022-08-11T04:34:21;4.53;;;3.80;;
21876;SDS011;11103;43.788;23.710;2022-08-11T04:37:16;7.40;;;3.63;;
21876;SDS011;11103;43.788;23.710;2022-08-11T04:40:11;4.23;;;3.83;;
21876;SDS011;11103;43.788;23.710;2022-08-11T04:48:37;3.40;;;3.10;;
21876;SDS011;11103;43.788;23.710;2022-08-11T04:57:46;5.23;;;3.53;;
21876;SDS011;11103;43.788;23.710;2022-08-11T05:00:38;5.73;;;3.40;;
21876;SDS011;11103;43.788;23.710;2022-08-11T05:13:03;4.30;;;3.43;;
21876;SDS011;11103;43.788;23.710;2022-08-11T05:16:01;4.77;;;3.70;;
21876;SDS011;11103;43.788;23.710;2022-08-11T05:18:55;4.20;;;3.80;;
21876;SDS011;11103;43.788;23.710;2022-08-11T05:21:42;8.00;;;5.10;;
21876;SDS011;11103;43.788;23.710;2022-08-11T05:24:44;5.10;;;4.33;;
21876;SDS011;11103;43.788;23.710;2022-08-11T05:27:35;8.87;;;5.23;;
21876;SDS011;11103;43.788;23.710;2022-08-11T05:30:25;7.27;;;5.03;;
21876;SDS011;11103;43.788;23.710;2022-08-11T05:33:17;30.60;;;22.10;;
21876;SDS011;11103;43.788;23.710;2022-08-11T05:39:14;42.07;;;27.50;;
21876;SDS011;11103;43.788;23.710;2022-08-11T05:42:00;82.40;;;52.90;;
21876;SDS011;11103;43.788;23.710;2022-08-11T05:44:47;10.53;;;5.90;;
21876;SDS011;11103;43.788;23.710;2022-08-11T05:47:33;4.50;;;4.10;;
21876;SDS011;11103;43.788;23.710;2022-08-11T05:50:20;5.57;;;3.83;;
21876;SDS011;11103;43.788;23.710;2022-08-11T05:53:09;5.73;;;3.57;;
21876;SDS011;11103;43.788;23.710;2022-08-11T05:55:58;4.50;;;3.20;;
21876;SDS011;11103;43.788;23.710;2022-08-11T05:58:42;3.43;;;2.93;;
21876;SDS011;11103;43.788;23.710;2022-08-11T06:01:11;4.30;;;3.90;;
21876;SDS011;11103;43.788;23.710;2022-08-11T06:03:44;8.50;;;5.73;;
21876;SDS011;11103;43.788;23.710;2022-08-11T06:06:33;6.27;;;3.70;;
21876;SDS011;11103;43.788;23.710;2022-08-11T06:09:00;5.83;;;3.83;;
21876;SDS011;11103;43.788;23.710;2022-08-11T06:11:26;5.60;;;4.67;;
21876;SDS011;11103;43.788;23.710;2022-08-11T06:13:53;13.40;;;8.60;;
21876;SDS011;11103;43.788;23.710;2022-08-11T06:16:22;16.80;;;10.97;;
21876;SDS011;11103;43.788;23.710;2022-08-11T06:18:52;8.40;;;3.93;;
21876;SDS011;11103;43.788;23.710;2022-08-11T06:21:18;5.63;;;3.20;;
21876;SDS011;11103;43.788;23.710;2022-08-11T06:23:45;6.23;;;3.63;;
21876;SDS011;11103;43.788;23.710;2022-08-11T06:26:12;4.37;;;3.97;;
21876;SDS011;11103;43.788;23.710;2022-08-11T06:28:39;13.30;;;7.60;;
21876;SDS011;11103;43.788;23.710;2022-08-11T06:33:57;3.50;;;3.20;;
21876;SDS011;11103;43.788;23.710;2022-08-11T06:36:40;5.87;;;3.63;;
21876;SDS011;11103;43.788;23.710;2022-08-11T06:41:57;7.13;;;4.70;;
21876;SDS011;11103;43.788;23.710;2022-08-11T06:46:53;4.87;;;4.27;;
21876;SDS011;11103;43.788;23.710;2022-08-11T06:49:31;13.63;;;8.63;;
21876;SDS011;11103;43.788;23.710;2022-08-11T06:52:17;13.47;;;7.33;;
21876;SDS011;11103;43.788;23.710;2022-08-11T06:54:47;5.90;;;3.93;;
21876;SDS011;11103;43.788;23.710;2022-08-11T06:57:18;8.33;;;6.77;;
21876;SDS011;11103;43.788;23.710;2022-08-11T07:00:04;7.47;;;4.27;;
21876;SDS011;11103;43.788;23.710;2022-08-11T07:05:22;5.17;;;3.40;;
21876;SDS011;11103;43.788;23.710;2022-08-11T07:13:44;5.60;;;3.20;;
21876;SDS011;11103;43.788;23.710;2022-08-11T07:16:30;7.73;;;3.63;;
21876;SDS011;11103;43.788;23.710;2022-08-11T07:19:03;4.20;;;3.53;;
21876;SDS011;11103;43.788;23.710;2022-08-11T07:21:49;11.90;;;7.37;;
21876;SDS011;11103;43.788;23.710;2022-08-11T07:24:35;5.57;;;4.10;;
21876;SDS011;11103;43.788;23.710;2022-08-11T07:27:23;7.37;;;4.27;;
21876;SDS011;11103;43.788;23.710;2022-08-11T07:30:11;6.17;;;4.60;;
21876;SDS011;11103;43.788;23.710;2022-08-11T07:32:43;12.33;;;9.37;;
21876;SDS011;11103;43.788;23.710;2022-08-11T07:35:41;7.60;;;5.13;;
21876;SDS011;11103;43.788;23.710;2022-08-11T07:38:21;4.73;;;3.50;;
21876;SDS011;11103;43.788;23.710;2022-08-11T07:41:08;7.93;;;3.67;;
21876;SDS011;11103;43.788;23.710;2022-08-11T07:43:35;9.47;;;5.37;;
21876;SDS011;11103;43.788;23.710;2022-08-11T07:46:02;7.13;;;3.87;;
21876;SDS011;11103;43.788;23.710;2022-08-11T07:48:47;4.90;;;4.00;;
21876;SDS011;11103;43.788;23.710;2022-08-11T07:51:33;4.30;;;3.90;;
21876;SDS011;11103;43.788;23.710;2022-08-11T07:54:18;3.77;;;3.23;;
21876;SDS011;11103;43.788;23.710;2022-08-11T07:56:44;6.67;;;3.53;;
21876;SDS011;11103;43.788;23.710;2022-08-11T07:59:11;4.33;;;3.73;;
21876;SDS011;11103;43.788;23.710;2022-08-11T08:01:56;8.03;;;6.17;;
21876;SDS011;11103;43.788;23.710;2022-08-11T08:04:42;10.37;;;6.50;;
21876;SDS011;11103;43.788;23.710;2022-08-11T08:07:29;6.17;;;3.60;;
21876;SDS011;11103;43.788;23.710;2022-08-11T08:10:13;5.47;;;4.93;;
21876;SDS011;11103;43.788;23.710;2022-08-11T08:13:01;4.97;;;4.20;;
21876;SDS011;11103;43.788;23.710;2022-08-11T08:15:47;5.83;;;3.50;;
21876;SDS011;11103;43.788;23.710;2022-08-11T08:18:34;6.30;;;3.77;;
21876;SDS011;11103;43.788;23.710;2022-08-11T08:21:02;14.73;;;7.60;;
21876;SDS011;11103;43.788;23.710;2022-08-11T08:23:44;8.40;;;6.40;;
21876;SDS011;11103;43.788;23.710;2022-08-11T08:26:14;8.17;;;3.43;;
21876;SDS011;11103;43.788;23.710;2022-08-11T08:29:00;34.47;;;19.13;;
21876;SDS011;11103;43.788;23.710;2022-08-11T08:31:46;7.47;;;4.90;;
21876;SDS011;11103;43.788;23.710;2022-08-11T08:34:14;4.30;;;3.50;;
21876;SDS011;11103;43.788;23.710;2022-08-11T08:36:43;3.97;;;3.10;;
21876;SDS011;11103;43.788;23.710;2022-08-11T08:39:12;6.17;;;3.27;;
21876;SDS011;11103;43.788;23.710;2022-08-11T08:41:38;7.73;;;5.40;;
21876;SDS011;11103;43.788;23.710;2022-08-11T08:44:07;8.57;;;4.00;;
21876;SDS011;11103;43.788;23.710;2022-08-11T08:46:35;4.63;;;4.03;;
21876;SDS011;11103;43.788;23.710;2022-08-11T08:49:05;5.40;;;3.57;;
21876;SDS011;11103;43.788;23.710;2022-08-11T08:51:35;5.23;;;3.70;;
21876;SDS011;11103;43.788;23.710;2022-08-11T08:54:06;4.90;;;3.13;;
21876;SDS011;11103;43.788;23.710;2022-08-11T08:56:34;2.93;;;2.60;;
21876;SDS011;11103;43.788;23.710;2022-08-11T08:59:04;3.40;;;3.10;;
21876;SDS011;11103;43.788;23.710;2022-08-11T09:01:32;3.47;;;2.97;;
21876;SDS011;11103;43.788;23.710;2022-08-11T09:04:05;3.47;;;3.00;;
21876;SDS011;11103;43.788;23.710;2022-08-11T09:06:39;3.77;;;3.07;;
21876;SDS011;11103;43.788;23.710;2022-08-11T09:09:07;4.80;;;3.23;;
21876;SDS011;11103;43.788;23.710;2022-08-11T09:11:36;3.47;;;2.70;;
21876;SDS011;11103;43.788;23.710;2022-08-11T09:14:15;5.47;;;2.90;;
21876;SDS011;11103;43.788;23.710;2022-08-11T09:16:41;3.83;;;2.80;;
21876;SDS011;11103;43.788;23.710;2022-08-11T09:19:08;3.30;;;2.60;;
21876;SDS011;11103;43.788;23.710;2022-08-11T09:21:34;4.07;;;2.80;;
21876;SDS011;11103;43.788;23.710;2022-08-11T09:24:04;2.93;;;2.60;;
21876;SDS011;11103;43.788;23.710;2022-08-11T09:26:49;5.70;;;2.90;;
21876;SDS011;11103;43.788;23.710;2022-08-11T09:29:28;7.07;;;2.80;;
21876;SDS011;11103;43.788;23.710;2022-08-11T09:31:56;2.93;;;2.73;;
21876;SDS011;11103;43.788;23.710;2022-08-11T09:34:23;2.87;;;2.67;;
21876;SDS011;11103;43.788;23.710;2022-08-11T09:36:50;3.03;;;2.40;;
21876;SDS011;11103;43.788;23.710;2022-08-11T09:39:35;4.47;;;3.00;;
21876;SDS011;11103;43.788;23.710;2022-08-11T09:42:21;3.40;;;2.97;;
21876;SDS011;11103;43.788;23.710;2022-08-11T09:45:09;3.23;;;2.70;;
21876;SDS011;11103;43.788;23.710;2022-08-11T09:47:36;4.67;;;2.80;;
21876;SDS011;11103;43.788;23.710;2022-08-11T09:50:03;3.27;;;2.93;;
21876;SDS011;11103;43.788;23.710;2022-08-11T09:52:30;6.77;;;2.87;;
21876;SDS011;11103;43.788;23.710;2022-08-11T09:54:59;4.10;;;3.20;;
21876;SDS011;11103;43.788;23.710;2022-08-11T09:57:26;3.40;;;3.03;;
21876;SDS011;11103;43.788;23.710;2022-08-11T10:00:12;3.87;;;2.80;;
21876;SDS011;11103;43.788;23.710;2022-08-11T10:02:43;3.67;;;3.33;;
21876;SDS011;11103;43.788;23.710;2022-08-11T10:05:12;3.37;;;2.93;;
21876;SDS011;11103;43.788;23.710;2022-08-11T10:07:59;4.37;;;3.00;;
21876;SDS011;11103;43.788;23.710;2022-08-11T10:10:26;18.43;;;13.60;;
21876;SDS011;11103;43.788;23.710;2022-08-11T10:13:00;4.00;;;3.10;;
21876;SDS011;11103;43.788;23.710;2022-08-11T10:15:31;5.97;;;5.13;;
21876;SDS011;11103;43.788;23.710;2022-08-11T10:18:08;4.57;;;3.00;;
21876;SDS011;11103;43.788;23.710;2022-08-11T10:20:57;5.17;;;3.57;;
21876;SDS011;11103;43.788;23.710;2022-08-11T10:23:25;4.90;;;3.00;;
21876;SDS011;11103;43.788;23.710;2022-08-11T10:26:13;3.30;;;3.00;;
21876;SDS011;11103;43.788;23.710;2022-08-11T10:28:59;6.10;;;3.30;;
21876;SDS011;11103;43.788;23.710;2022-08-11T10:31:26;3.80;;;3.10;;
21876;SDS011;11103;43.788;23.710;2022-08-11T10:34:11;3.43;;;3.10;;
21876;SDS011;11103;43.788;23.710;2022-08-11T10:36:39;3.13;;;2.87;;
21876;SDS011;11103;43.788;23.710;2022-08-11T10:39:16;5.33;;;3.43;;
21876;SDS011;11103;43.788;23.710;2022-08-11T10:41:44;3.57;;;3.20;;
21876;SDS011;11103;43.788;23.710;2022-08-11T10:44:30;3.60;;;3.30;;
21876;SDS011;11103;43.788;23.710;2022-08-11T10:47:03;4.00;;;3.43;;
21876;SDS011;11103;43.788;23.710;2022-08-11T10:49:47;4.53;;;4.03;;
21876;SDS011;11103;43.788;23.710;2022-08-11T10:52:33;4.23;;;3.83;;
21876;SDS011;11103;43.788;23.710;2022-08-11T10:55:19;4.33;;;3.60;;
21876;SDS011;11103;43.788;23.710;2022-08-11T10:58:05;3.83;;;3.33;;
21876;SDS011;11103;43.788;23.710;2022-08-11T11:00:50;4.03;;;3.40;;
21876;SDS011;11103;43.788;23.710;2022-08-11T11:03:20;5.77;;;3.10;;
21876;SDS011;11103;43.788;23.710;2022-08-11T11:05:49;4.33;;;3.30;;
21876;SDS011;11103;43.788;23.710;2022-08-11T11:08:18;5.00;;;3.70;;
21876;SDS011;11103;43.788;23.710;2022-08-11T11:11:08;5.13;;;3.80;;
21876;SDS011;11103;43.788;23.710;2022-08-11T11:13:36;3.37;;;3.07;;
21876;SDS011;11103;43.788;23.710;2022-08-11T11:16:22;3.77;;;3.10;;
21876;SDS011;11103;43.788;23.710;2022-08-11T11:19:06;6.23;;;3.40;;
21876;SDS011;11103;43.788;23.710;2022-08-11T11:21:35;3.27;;;2.93;;
21876;SDS011;11103;43.788;23.710;2022-08-11T11:29:58;3.40;;;3.10;;
21876;SDS011;11103;43.788;23.710;2022-08-11T11:33:12;4.83;;;3.33;;
21876;SDS011;11103;43.788;23.710;2022-08-11T11:38:16;4.13;;;3.73;;
21876;SDS011;11103;43.788;23.710;2022-08-11T11:40:42;3.73;;;3.30;;
21876;SDS011;11103;43.788;23.710;2022-08-11T11:43:28;4.03;;;3.33;;
21876;SDS011;11103;43.788;23.710;2022-08-11T11:45:54;4.57;;;3.77;;
21876;SDS011;11103;43.788;23.710;2022-08-11T11:48:20;7.77;;;3.50;;
21876;SDS011;11103;43.788;23.710;2022-08-11T11:50:46;5.77;;;3.73;;
21876;SDS011;11103;43.788;23.710;2022-08-11T11:53:13;4.27;;;3.00;;
21876;SDS011;11103;43.788;23.710;2022-08-11T11:55:38;6.30;;;4.20;;
21876;SDS011;11103;43.788;23.710;2022-08-11T11:58:05;4.77;;;3.70;;
21876;SDS011;11103;43.788;23.710;2022-08-11T12:00:50;13.73;;;8.80;;
21876;SDS011;11103;43.788;23.710;2022-08-11T12:03:36;7.53;;;5.30;;
21876;SDS011;11103;43.788;23.710;2022-08-11T12:06:03;4.70;;;3.60;;
21876;SDS011;11103;43.788;23.710;2022-08-11T12:08:30;4.53;;;3.30;;
21876;SDS011;11103;43.788;23.710;2022-08-11T12:10:58;4.10;;;3.50;;
21876;SDS011;11103;43.788;23.710;2022-08-11T12:13:50;4.53;;;3.50;;
21876;SDS011;11103;43.788;23.710;2022-08-11T12:16:18;3.70;;;3.23;;
21876;SDS011;11103;43.788;23.710;2022-08-11T12:18:46;4.50;;;3.13;;
21876;SDS011;11103;43.788;23.710;2022-08-11T12:21:15;7.87;;;3.70;;
21876;SDS011;11103;43.788;23.710;2022-08-11T12:23:42;6.17;;;4.50;;
21876;SDS011;11103;43.788;23.710;2022-08-11T12:26:29;5.07;;;3.90;;
21876;SDS011;11103;43.788;23.710;2022-08-11T12:29:16;3.40;;;3.10;;
21876;SDS011;11103;43.788;23.710;2022-08-11T12:31:44;6.63;;;3.83;;
21876;SDS011;11103;43.788;23.710;2022-08-11T12:34:11;6.60;;;4.17;;
21876;SDS011;11103;43.788;23.710;2022-08-11T12:36:40;4.83;;;3.40;;
21876;SDS011;11103;43.788;23.710;2022-08-11T12:39:20;4.67;;;3.10;;
21876;SDS011;11103;43.788;23.710;2022-08-11T12:42:12;4.17;;;3.17;;
21876;SDS011;11103;43.788;23.710;2022-08-11T12:45:08;5.37;;;3.20;;
21876;SDS011;11103;43.788;23.710;2022-08-11T12:50:57;9.23;;;3.00;;
21876;SDS011;11103;43.788;23.710;2022-08-11T12:53:52;3.53;;;3.23;;
21876;SDS011;11103;43.788;23.710;2022-08-11T12:56:22;5.77;;;3.23;;
21876;SDS011;11103;43.788;23.710;2022-08-11T12:59:09;25.60;;;17.90;;
21876;SDS011;11103;43.788;23.710;2022-08-11T13:01:54;23.07;;;17.87;;
21876;SDS011;11103;43.788;23.710;2022-08-11T13:04:38;6.13;;;3.80;;
21876;SDS011;11103;43.788;23.710;2022-08-11T13:07:26;10.80;;;7.50;;
21876;SDS011;11103;43.788;23.710;2022-08-11T13:09:53;5.60;;;3.80;;
21876;SDS011;11103;43.788;23.710;2022-08-11T13:12:23;34.13;;;23.60;;
21876;SDS011;11103;43.788;23.710;2022-08-11T13:15:13;23.53;;;15.90;;
21876;SDS011;11103;43.788;23.710;2022-08-11T13:17:44;4.40;;;3.70;;
21876;SDS011;11103;43.788;23.710;2022-08-11T13:20:14;3.97;;;3.43;;
21876;SDS011;11103;43.788;23.710;2022-08-11T13:22:45;3.63;;;3.10;;
21876;SDS011;11103;43.788;23.710;2022-08-11T13:25:15;3.40;;;3.10;;
21876;SDS011;11103;43.788;23.710;2022-08-11T13:27:43;3.50;;;3.20;;
21876;SDS011;11103;43.788;23.710;2022-08-11T13:30:11;3.53;;;3.17;;
21876;SDS011;11103;43.788;23.710;2022-08-11T13:32:57;4.43;;;3.27;;
21876;SDS011;11103;43.788;23.710;2022-08-11T13:35:23;3.53;;;2.90;;
21876;SDS011;11103;43.788;23.710;2022-08-11T13:37:51;3.23;;;2.93;;
21876;SDS011;11103;43.788;23.710;2022-08-11T13:40:19;4.03;;;2.73;;
21876;SDS011;11103;43.788;23.710;2022-08-11T13:42:46;4.67;;;3.30;;
21876;SDS011;11103;43.788;23.710;2022-08-11T13:45:13;3.07;;;2.70;;
21876;SDS011;11103;43.788;23.710;2022-08-11T13:47:39;3.40;;;3.10;;
21876;SDS011;11103;43.788;23.710;2022-08-11T13:50:06;3.47;;;3.00;;
21876;SDS011;11103;43.788;23.710;2022-08-11T13:52:33;3.13;;;2.83;;
21876;SDS011;11103;43.788;23.710;2022-08-11T13:55:03;6.13;;;3.27;;
21876;SDS011;11103;43.788;23.710;2022-08-11T13:57:31;4.87;;;2.90;;
21876;SDS011;11103;43.788;23.710;2022-08-11T13:59:58;3.87;;;2.97;;
21876;SDS011;11103;43.788;23.710;2022-08-11T14:02:34;3.37;;;3.07;;
21876;SDS011;11103;43.788;23.710;2022-08-11T14:05:09;6.50;;;4.17;;
21876;SDS011;11103;43.788;23.710;2022-08-11T14:07:49;4.83;;;3.00;;
21876;SDS011;11103;43.788;23.710;2022-08-11T14:10:20;5.40;;;4.60;;
21876;SDS011;11103;43.788;23.710;2022-08-11T14:12:54;3.88;;;3.40;;
21876;SDS011;11103;43.788;23.710;2022-08-11T14:15:42;5.95;;;4.13;;
21876;SDS011;11103;43.788;23.710;2022-08-11T14:18:13;2.88;;;2.65;;
21876;SDS011;11103;43.788;23.710;2022-08-11T14:20:43;15.27;;;8.75;;
21876;SDS011;11103;43.788;23.710;2022-08-11T14:23:34;16.80;;;11.50;;
21876;SDS011;11103;43.788;23.710;2022-08-11T14:26:02;25.70;;;15.07;;
21876;SDS011;11103;43.788;23.710;2022-08-11T14:28:47;4.43;;;3.83;;
21876;SDS011;11103;43.788;23.710;2022-08-11T14:31:14;2.97;;;2.72;;
21876;SDS011;11103;43.788;23.710;2022-08-11T14:33:40;7.15;;;2.60;;
21876;SDS011;11103;43.788;23.710;2022-08-11T14:36:09;2.42;;;2.22;;
21876;SDS011;11103;43.788;23.710;2022-08-11T14:38:35;5.88;;;2.88;;
21876;SDS011;11103;43.788;23.710;2022-08-11T14:41:03;5.40;;;2.50;;
21876;SDS011;11103;43.788;23.710;2022-08-11T14:43:47;4.07;;;2.60;;
21876;SDS011;11103;43.788;23.710;2022-08-11T14:46:32;3.88;;;3.47;;
21876;SDS011;11103;43.788;23.710;2022-08-11T14:49:17;3.92;;;2.78;;
21876;SDS011;11103;43.788;23.710;2022-08-11T14:51:45;3.60;;;3.08;;
21876;SDS011;11103;43.788;23.710;2022-08-11T14:54:12;7.70;;;5.57;;
21876;SDS011;11103;43.788;23.710;2022-08-11T14:56:58;3.10;;;2.80;;
21876;SDS011;11103;43.788;23.710;2022-08-11T14:59:24;2.72;;;2.50;;
21876;SDS011;11103;43.788;23.710;2022-08-11T15:01:50;7.18;;;4.90;;
21876;SDS011;11103;43.788;23.710;2022-08-11T15:04:34;2.70;;;2.50;;
21876;SDS011;11103;43.788;23.710;2022-08-11T15:07:00;2.53;;;2.33;;
21876;SDS011;11103;43.788;23.710;2022-08-11T15:09:26;4.43;;;2.53;;
21876;SDS011;11103;43.788;23.710;2022-08-11T15:11:51;7.00;;;2.63;;
21876;SDS011;11103;43.788;23.710;2022-08-11T15:14:32;3.25;;;2.80;;
21876;SDS011;11103;43.788;23.710;2022-08-11T15:17:20;4.38;;;2.42;;
21876;SDS011;11103;43.788;23.710;2022-08-11T15:19:47;10.55;;;7.53;;
21876;SDS011;11103;43.788;23.710;2022-08-11T15:22:33;5.95;;;3.60;;
21876;SDS011;11103;43.788;23.710;2022-08-11T15:25:17;4.40;;;2.47;;
21876;SDS011;11103;43.788;23.710;2022-08-11T15:27:44;2.60;;;2.30;;
21876;SDS011;11103;43.788;23.710;2022-08-11T15:30:33;6.30;;;3.58;;
21876;SDS011;11103;43.788;23.710;2022-08-11T15:33:19;4.10;;;2.88;;
21876;SDS011;11103;43.788;23.710;2022-08-11T15:36:07;4.07;;;2.63;;
21876;SDS011;11103;43.788;23.710;2022-08-11T15:38:55;2.70;;;2.50;;
21876;SDS011;11103;43.788;23.710;2022-08-11T15:41:40;2.92;;;2.63;;
21876;SDS011;11103;43.788;23.710;2022-08-11T15:44:30;3.63;;;2.72;;
21876;SDS011;11103;43.788;23.710;2022-08-11T15:47:17;2.97;;;2.60;;
21876;SDS011;11103;43.788;23.710;2022-08-11T15:49:47;10.13;;;2.70;;
21876;SDS011;11103;43.788;23.710;2022-08-11T15:52:20;4.05;;;2.85;;
21876;SDS011;11103;43.788;23.710;2022-08-11T15:54:51;7.70;;;3.10;;
21876;SDS011;11103;43.788;23.710;2022-08-11T15:57:18;3.15;;;2.47;;
21876;SDS011;11103;43.788;23.710;2022-08-11T16:00:04;4.45;;;3.15;;
21876;SDS011;11103;43.788;23.710;2022-08-11T16:05:58;4.93;;;2.88;;
21876;SDS011;11103;43.788;23.710;2022-08-11T16:08:24;5.28;;;2.88;;
21876;SDS011;11103;43.788;23.710;2022-08-11T16:10:52;6.07;;;3.00;;
21876;SDS011;11103;43.788;23.710;2022-08-11T16:13:20;4.55;;;2.60;;
21876;SDS011;11103;43.788;23.710;2022-08-11T16:15:48;5.68;;;3.25;;
21876;SDS011;11103;43.788;23.710;2022-08-11T16:18:47;3.17;;;2.87;;
21876;SDS011;11103;43.788;23.710;2022-08-11T16:21:23;3.03;;;2.63;;
21876;SDS011;11103;43.788;23.710;2022-08-11T16:23:52;4.27;;;3.10;;
21876;SDS011;11103;43.788;23.710;2022-08-11T16:26:23;3.80;;;3.07;;
21876;SDS011;11103;43.788;23.710;2022-08-11T16:28:51;10.53;;;6.63;;
21876;SDS011;11103;43.788;23.710;2022-08-11T16:31:19;49.87;;;33.93;;
21876;SDS011;11103;43.788;23.710;2022-08-11T16:33:46;7.77;;;4.07;;
21876;SDS011;11103;43.788;23.710;2022-08-11T16:36:13;24.27;;;13.13;;
21876;SDS011;11103;43.788;23.710;2022-08-11T16:38:59;18.57;;;13.13;;
21876;SDS011;11103;43.788;23.710;2022-08-11T16:41:28;9.57;;;7.63;;
21876;SDS011;11103;43.788;23.710;2022-08-11T16:44:14;18.77;;;7.30;;
21876;SDS011;11103;43.788;23.710;2022-08-11T16:47:00;6.37;;;3.73;;
21876;SDS011;11103;43.788;23.710;2022-08-11T16:49:35;7.50;;;4.00;;
21876;SDS011;11103;43.788;23.710;2022-08-11T16:52:06;10.93;;;5.00;;
21876;SDS011;11103;43.788;23.710;2022-08-11T16:54:36;12.27;;;4.10;;
21876;SDS011;11103;43.788;23.710;2022-08-11T16:57:03;22.17;;;5.67;;
21876;SDS011;11103;43.788;23.710;2022-08-11T16:59:52;10.43;;;4.93;;
21876;SDS011;11103;43.788;23.710;2022-08-11T17:02:19;10.93;;;4.93;;
21876;SDS011;11103;43.788;23.710;2022-08-11T17:05:10;12.40;;;5.13;;
21876;SDS011;11103;43.788;23.710;2022-08-11T17:07:59;6.70;;;4.30;;
21876;SDS011;11103;43.788;23.710;2022-08-11T17:10:48;9.37;;;4.13;;
21876;SDS011;11103;43.788;23.710;2022-08-11T17:13:38;4.60;;;3.63;;
21876;SDS011;11103;43.788;23.710;2022-08-11T17:16:07;4.77;;;3.93;;
21876;SDS011;11103;43.788;23.710;2022-08-11T17:18:43;5.17;;;4.47;;
21876;SDS011;11103;43.788;23.710;2022-08-11T17:21:16;5.43;;;4.03;;
21876;SDS011;11103;43.788;23.710;2022-08-11T17:23:42;5.77;;;3.73;;
21876;SDS011;11103;43.788;23.710;2022-08-11T17:28:58;4.43;;;3.57;;
21876;SDS011;11103;43.788;23.710;2022-08-11T17:31:26;7.50;;;4.10;;
21876;SDS011;11103;43.788;23.710;2022-08-11T17:34:15;10.60;;;5.30;;
21876;SDS011;11103;43.788;23.710;2022-08-11T17:36:59;14.47;;;10.97;;
21876;SDS011;11103;43.788;23.710;2022-08-11T17:39:28;87.43;;;58.40;;
21876;SDS011;11103;43.788;23.710;2022-08-11T17:41:56;144.03;;;97.07;;
21876;SDS011;11103;43.788;23.710;2022-08-11T17:44:43;30.00;;;17.73;;
21876;SDS011;11103;43.788;23.710;2022-08-11T17:47:28;11.43;;;8.70;;
21876;SDS011;11103;43.788;23.710;2022-08-11T17:50:14;8.03;;;6.00;;
21876;SDS011;11103;43.788;23.710;2022-08-11T17:52:40;8.87;;;5.07;;
21876;SDS011;11103;43.788;23.710;2022-08-11T17:55:25;6.67;;;4.73;;
21876;SDS011;11103;43.788;23.710;2022-08-11T17:58:12;9.50;;;5.53;;
21876;SDS011;11103;43.788;23.710;2022-08-11T18:00:58;55.33;;;35.97;;
21876;SDS011;11103;43.788;23.710;2022-08-11T18:03:24;106.53;;;74.80;;
21876;SDS011;11103;43.788;23.710;2022-08-11T18:05:59;88.07;;;58.27;;
21876;SDS011;11103;43.788;23.710;2022-08-11T18:08:28;31.67;;;21.20;;
21876;SDS011;11103;43.788;23.710;2022-08-11T18:11:14;34.70;;;23.30;;
21876;SDS011;11103;43.788;23.710;2022-08-11T18:14:05;13.60;;;10.40;;
21876;SDS011;11103;43.788;23.710;2022-08-11T18:16:50;10.03;;;6.50;;
21876;SDS011;11103;43.788;23.710;2022-08-11T18:19:34;8.70;;;6.43;;
21876;SDS011;11103;43.788;23.710;2022-08-11T18:22:22;302.63;;;176.87;;
21876;SDS011;11103;43.788;23.710;2022-08-11T18:25:15;162.00;;;87.13;;
21876;SDS011;11103;43.788;23.710;2022-08-11T18:28:03;361.47;;;182.50;;
21876;SDS011;11103;43.788;23.710;2022-08-11T18:30:50;264.97;;;127.13;;
21876;SDS011;11103;43.788;23.710;2022-08-11T18:33:44;214.47;;;104.57;;
21876;SDS011;11103;43.788;23.710;2022-08-11T18:36:37;174.03;;;87.70;;
21876;SDS011;11103;43.788;23.710;2022-08-11T18:39:25;110.43;;;65.77;;
21876;SDS011;11103;43.788;23.710;2022-08-11T18:42:13;263.43;;;138.47;;
21876;SDS011;11103;43.788;23.710;2022-08-11T18:45:02;91.57;;;47.47;;
21876;SDS011;11103;43.788;23.710;2022-08-11T18:47:50;201.90;;;113.20;;
21876;SDS011;11103;43.788;23.710;2022-08-11T18:50:38;119.70;;;62.90;;
21876;SDS011;11103;43.788;23.710;2022-08-11T18:53:27;114.33;;;61.00;;
21876;SDS011;11103;43.788;23.710;2022-08-11T18:56:13;52.27;;;34.27;;
21876;SDS011;11103;43.788;23.710;2022-08-11T18:59:00;25.67;;;16.40;;
21876;SDS011;11103;43.788;23.710;2022-08-11T19:01:48;12.83;;;7.13;;
21876;SDS011;11103;43.788;23.710;2022-08-11T19:04:37;10.30;;;6.67;;
21876;SDS011;11103;43.788;23.710;2022-08-11T19:07:22;8.43;;;5.60;;